createdAt,value
2022-08-25T11:08:00.878Z,35.14
2022-08-25T11:10:40.593Z,35.48
2022-08-25T11:13:11.530Z,35.40
2022-08-25T11:19:20.513Z,35.09
2022-08-25T11:22:06.636Z,34.97
2022-08-25T11:24:41.423Z,34.62
2022-08-25T13:46:08.977Z,36.73
2022-08-25T13:59:09.966Z,36.11
2022-08-25T14:02:01.720Z,35.18
2022-08-25T14:08:31.498Z,35.76
2022-08-25T14:17:28.613Z,34.96
2022-08-25T14:20:14.740Z,35.12
2022-08-25T14:23:02.398Z,35.08
2022-08-25T14:29:01.796Z,35.44
2022-08-25T14:31:33.871Z,35.40
2022-08-25T14:34:06.306Z,35.03
2022-08-25T14:36:40.558Z,35.47
2022-08-25T14:39:08.698Z,35.13
2022-08-25T14:41:51.179Z,34.78
2022-08-25T14:44:20.323Z,34.96
2022-08-25T14:46:56.994Z,35.05
2022-08-25T14:52:44.380Z,35.24
2022-08-25T14:55:31.541Z,35.32
2022-08-25T14:58:01.340Z,34.97
2022-08-25T15:00:28.075Z,34.96
2022-08-25T15:02:55.001Z,35.32
2022-08-25T15:05:27.102Z,35.00
2022-08-25T15:11:08.815Z,34.40
2022-08-25T15:16:38.720Z,34.65
2022-08-25T15:19:17.447Z,34.33
2022-08-25T15:21:47.324Z,34.33
2022-08-25T15:24:20.146Z,34.16
2022-08-25T15:27:10.509Z,34.03
2022-08-25T15:32:30.707Z,34.49
2022-08-25T15:34:58.808Z,34.32
2022-08-25T15:37:39.111Z,34.11
2022-08-25T15:40:09.089Z,34.04
2022-08-25T15:42:45.893Z,33.79
2022-08-25T15:45:16.771Z,34.29
2022-08-25T15:48:13.772Z,33.95
2022-08-25T15:50:54.239Z,33.69
2022-08-25T15:53:32.283Z,33.72
2022-08-25T15:56:06.236Z,33.80
2022-08-25T15:58:36.325Z,33.88
2022-08-25T16:01:10.509Z,34.01
2022-08-25T16:03:41.903Z,34.23
2022-08-25T16:06:13.945Z,34.47
2022-08-25T16:08:58.723Z,34.37
2022-08-25T16:11:45.467Z,33.70
2022-08-25T16:14:36.873Z,34.01
2022-08-25T16:17:56.028Z,34.03
2022-08-25T16:20:35.187Z,33.62
2022-08-25T16:23:04.099Z,33.46
2022-08-25T16:25:31.670Z,33.57
2022-08-25T16:27:59.396Z,33.94
2022-08-25T16:30:43.709Z,34.00
2022-08-25T16:36:15.341Z,33.86
2022-08-25T16:38:43.851Z,34.02
2022-08-25T16:42:14.373Z,33.38
2022-08-25T16:44:50.802Z,33.55
2022-08-25T16:47:27.083Z,33.31
2022-08-25T16:49:54.700Z,33.61
2022-08-25T16:55:38.927Z,33.65
2022-08-25T17:07:05.048Z,33.63
2022-08-25T17:10:01.668Z,33.56
2022-08-25T17:12:29.175Z,33.22
2022-08-25T17:18:15.226Z,33.51
2022-08-25T17:20:46.199Z,33.78
2022-08-25T17:24:00.476Z,33.70
2022-08-25T17:26:42.499Z,33.53
2022-08-25T17:29:26.959Z,33.19
2022-08-25T17:31:55.010Z,33.47
2022-08-25T17:34:23.375Z,33.36
2022-08-25T17:36:54.021Z,33.35
2022-08-25T17:39:22.083Z,33.56
2022-08-25T17:41:51.182Z,33.41
2022-08-25T17:44:18.932Z,33.55
2022-08-25T17:46:54.563Z,33.36
2022-08-25T17:55:34.672Z,33.01
2022-08-25T17:58:19.816Z,33.01
2022-08-25T18:03:36.319Z,32.99
2022-08-25T18:06:07.964Z,32.95
2022-08-25T18:08:41.195Z,33.08
2022-08-25T18:11:20.563Z,33.04
2022-08-25T18:13:54.527Z,33.04
2022-08-25T18:16:26.565Z,32.77
2022-08-25T18:19:06.697Z,32.47
2022-08-25T18:21:43.744Z,32.57
2022-08-25T18:24:21.597Z,32.44
2022-08-25T18:26:52.616Z,32.29
2022-08-25T18:29:23.509Z,32.50
2022-08-25T18:32:00.126Z,32.54
2022-08-25T18:34:38.571Z,32.38
2022-08-25T18:37:28.902Z,32.30
2022-08-25T18:40:17.989Z,32.13
2022-08-25T18:42:49.021Z,32.15
2022-08-25T18:45:27.734Z,31.92
2022-08-25T18:47:58.183Z,31.81
2022-08-25T18:50:30.045Z,31.81
2022-08-25T18:52:59.429Z,31.76
2022-08-25T18:55:42.657Z,31.47
2022-08-25T18:58:16.353Z,31.51
2022-08-25T19:03:44.693Z,31.38
2022-08-25T19:06:16.756Z,31.01
2022-08-25T19:08:54.727Z,31.25
2022-08-25T19:11:26.727Z,31.21
2022-08-25T19:14:12.213Z,31.15
2022-08-25T19:17:15.540Z,31.06
2022-08-25T19:19:45.844Z,31.10
2022-08-25T19:22:41.180Z,31.10
2022-08-25T19:25:16.259Z,31.13
2022-08-25T19:27:55.481Z,31.03
2022-08-25T19:30:28.420Z,30.95
2022-08-25T19:32:59.120Z,30.99
2022-08-25T19:35:34.724Z,30.81
